sensor_id;sensor_type;location;lat;lon;timestamp;P1;durP1;ratioP1;P2;durP2;ratioP2
74898;SDS011;63458;48.210;16.338;2023-02-15T00:01:15;26.02;;;15.07;;
74898;SDS011;63458;48.210;16.338;2023-02-15T00:03:41;26.27;;;15.35;;
74898;SDS011;63458;48.210;16.338;2023-02-15T00:06:07;24.85;;;13.13;;
74898;SDS011;63458;48.210;16.338;2023-02-15T00:08:33;25.95;;;15.10;;
74898;SDS011;63458;48.210;16.338;2023-02-15T00:11:06;26.00;;;15.52;;
74898;SDS011;63458;48.210;16.338;2023-02-15T00:13:32;25.65;;;14.20;;
74898;SDS011;63458;48.210;16.338;2023-02-15T00:18:26;23.52;;;13.55;;
74898;SDS011;63458;48.210;16.338;2023-02-15T00:20:52;25.00;;;13.40;;
74898;SDS011;63458;48.210;16.338;2023-02-15T00:23:18;27.25;;;15.80;;
74898;SDS011;63458;48.210;16.338;2023-02-15T00:25:44;25.48;;;14.82;;
74898;SDS011;63458;48.210;16.338;2023-02-15T00:28:10;27.02;;;15.43;;
74898;SDS011;63458;48.210;16.338;2023-02-15T00:30:36;24.45;;;14.98;;
74898;SDS011;63458;48.210;16.338;2023-02-15T00:33:02;26.55;;;14.80;;
74898;SDS011;63458;48.210;16.338;2023-02-15T00:35:28;25.63;;;14.75;;
74898;SDS011;63458;48.210;16.338;2023-02-15T00:37:55;25.23;;;13.45;;
74898;SDS011;63458;48.210;16.338;2023-02-15T00:40:21;25.30;;;14.52;;
74898;SDS011;63458;48.210;16.338;2023-02-15T00:42:47;27.63;;;14.27;;
74898;SDS011;63458;48.210;16.338;2023-02-15T00:45:13;24.67;;;14.40;;
74898;SDS011;63458;48.210;16.338;2023-02-15T00:47:39;23.25;;;13.85;;
74898;SDS011;63458;48.210;16.338;2023-02-15T00:50:05;27.35;;;14.95;;
74898;SDS011;63458;48.210;16.338;2023-02-15T00:52:31;26.40;;;15.13;;
74898;SDS011;63458;48.210;16.338;2023-02-15T00:54:58;25.65;;;14.27;;
74898;SDS011;63458;48.210;16.338;2023-02-15T00:57:24;25.00;;;13.68;;
74898;SDS011;63458;48.210;16.338;2023-02-15T00:59:50;24.60;;;14.73;;
74898;SDS011;63458;48.210;16.338;2023-02-15T01:02:16;23.27;;;13.68;;
74898;SDS011;63458;48.210;16.338;2023-02-15T01:04:42;24.15;;;15.10;;
74898;SDS011;63458;48.210;16.338;2023-02-15T01:07:08;25.45;;;14.00;;
74898;SDS011;63458;48.210;16.338;2023-02-15T01:09:34;25.50;;;13.93;;
74898;SDS011;63458;48.210;16.338;2023-02-15T01:12:00;24.08;;;15.07;;
74898;SDS011;63458;48.210;16.338;2023-02-15T01:14:26;23.02;;;13.10;;
74898;SDS011;63458;48.210;16.338;2023-02-15T01:16:52;24.80;;;14.52;;
74898;SDS011;63458;48.210;16.338;2023-02-15T01:19:18;25.42;;;14.35;;
74898;SDS011;63458;48.210;16.338;2023-02-15T01:21:44;26.25;;;15.02;;
74898;SDS011;63458;48.210;16.338;2023-02-15T01:24:14;25.30;;;14.18;;
74898;SDS011;63458;48.210;16.338;2023-02-15T01:26:40;27.08;;;14.50;;
74898;SDS011;63458;48.210;16.338;2023-02-15T01:29:06;27.45;;;15.20;;
74898;SDS011;63458;48.210;16.338;2023-02-15T01:31:32;25.27;;;15.15;;
74898;SDS011;63458;48.210;16.338;2023-02-15T01:33:58;23.38;;;13.85;;
74898;SDS011;63458;48.210;16.338;2023-02-15T01:36:24;26.13;;;14.02;;
74898;SDS011;63458;48.210;16.338;2023-02-15T01:38:50;26.50;;;15.00;;
74898;SDS011;63458;48.210;16.338;2023-02-15T01:41:16;26.05;;;14.30;;
74898;SDS011;63458;48.210;16.338;2023-02-15T01:43:46;24.35;;;14.85;;
74898;SDS011;63458;48.210;16.338;2023-02-15T01:46:12;24.85;;;14.38;;
74898;SDS011;63458;48.210;16.338;2023-02-15T01:48:49;26.48;;;15.52;;
74898;SDS011;63458;48.210;16.338;2023-02-15T01:51:17;25.08;;;13.75;;
74898;SDS011;63458;48.210;16.338;2023-02-15T01:53:46;26.17;;;13.93;;
74898;SDS011;63458;48.210;16.338;2023-02-15T01:58:39;24.73;;;14.23;;
74898;SDS011;63458;48.210;16.338;2023-02-15T02:01:06;24.65;;;13.63;;
74898;SDS011;63458;48.210;16.338;2023-02-15T02:06:08;30.55;;;15.40;;
74898;SDS011;63458;48.210;16.338;2023-02-15T02:08:35;24.45;;;13.85;;
74898;SDS011;63458;48.210;16.338;2023-02-15T02:11:01;28.42;;;16.35;;
74898;SDS011;63458;48.210;16.338;2023-02-15T02:13:27;26.40;;;15.13;;
74898;SDS011;63458;48.210;16.338;2023-02-15T02:15:56;26.63;;;14.73;;
74898;SDS011;63458;48.210;16.338;2023-02-15T02:21:07;25.83;;;14.20;;
74898;SDS011;63458;48.210;16.338;2023-02-15T02:34:10;25.95;;;13.82;;
74898;SDS011;63458;48.210;16.338;2023-02-15T02:36:41;26.05;;;15.30;;
74898;SDS011;63458;48.210;16.338;2023-02-15T02:41:58;28.20;;;15.48;;
74898;SDS011;63458;48.210;16.338;2023-02-15T02:49:44;23.60;;;13.25;;
74898;SDS011;63458;48.210;16.338;2023-02-15T02:54:54;24.77;;;14.68;;
74898;SDS011;63458;48.210;16.338;2023-02-15T02:57:21;27.08;;;16.15;;
74898;SDS011;63458;48.210;16.338;2023-02-15T02:59:49;29.55;;;14.88;;
74898;SDS011;63458;48.210;16.338;2023-02-15T03:02:17;24.70;;;14.40;;
74898;SDS011;63458;48.210;16.338;2023-02-15T03:04:46;30.20;;;14.95;;
74898;SDS011;63458;48.210;16.338;2023-02-15T03:07:18;28.35;;;16.45;;
74898;SDS011;63458;48.210;16.338;2023-02-15T03:09:48;27.85;;;15.25;;
74898;SDS011;63458;48.210;16.338;2023-02-15T03:12:22;26.45;;;14.18;;
74898;SDS011;63458;48.210;16.338;2023-02-15T03:17:25;25.58;;;14.23;;
74898;SDS011;63458;48.210;16.338;2023-02-15T03:19:53;27.75;;;14.75;;
74898;SDS011;63458;48.210;16.338;2023-02-15T03:22:22;26.42;;;15.77;;
74898;SDS011;63458;48.210;16.338;2023-02-15T03:24:56;27.58;;;14.85;;
74898;SDS011;63458;48.210;16.338;2023-02-15T03:27:31;24.63;;;14.75;;
74898;SDS011;63458;48.210;16.338;2023-02-15T03:29:58;26.67;;;15.40;;
74898;SDS011;63458;48.210;16.338;2023-02-15T03:32:25;27.92;;;15.70;;
74898;SDS011;63458;48.210;16.338;2023-02-15T03:34:52;26.67;;;14.48;;
74898;SDS011;63458;48.210;16.338;2023-02-15T03:37:20;25.75;;;14.70;;
74898;SDS011;63458;48.210;16.338;2023-02-15T03:40:03;28.27;;;14.95;;
74898;SDS011;63458;48.210;16.338;2023-02-15T03:42:54;27.95;;;15.68;;
74898;SDS011;63458;48.210;16.338;2023-02-15T03:45:25;26.58;;;15.18;;
74898;SDS011;63458;48.210;16.338;2023-02-15T03:47:52;27.85;;;15.25;;
74898;SDS011;63458;48.210;16.338;2023-02-15T03:50:21;28.67;;;15.13;;
74898;SDS011;63458;48.210;16.338;2023-02-15T03:53:08;27.25;;;14.40;;
74898;SDS011;63458;48.210;16.338;2023-02-15T03:58:01;24.98;;;15.20;;
74898;SDS011;63458;48.210;16.338;2023-02-15T04:00:54;27.75;;;15.63;;
74898;SDS011;63458;48.210;16.338;2023-02-15T04:03:41;30.38;;;15.38;;
74898;SDS011;63458;48.210;16.338;2023-02-15T04:06:09;28.45;;;15.45;;
74898;SDS011;63458;48.210;16.338;2023-02-15T04:08:35;27.55;;;14.18;;
74898;SDS011;63458;48.210;16.338;2023-02-15T04:11:20;30.67;;;15.82;;
74898;SDS011;63458;48.210;16.338;2023-02-15T04:13:46;27.42;;;15.43;;
74898;SDS011;63458;48.210;16.338;2023-02-15T04:16:12;27.23;;;14.70;;
74898;SDS011;63458;48.210;16.338;2023-02-15T04:18:39;28.58;;;15.43;;
74898;SDS011;63458;48.210;16.338;2023-02-15T04:21:24;27.60;;;14.50;;
74898;SDS011;63458;48.210;16.338;2023-02-15T04:24:09;26.67;;;15.45;;
74898;SDS011;63458;48.210;16.338;2023-02-15T04:26:55;28.65;;;15.07;;
74898;SDS011;63458;48.210;16.338;2023-02-15T04:29:21;26.35;;;15.20;;
74898;SDS011;63458;48.210;16.338;2023-02-15T04:31:47;25.50;;;15.00;;
74898;SDS011;63458;48.210;16.338;2023-02-15T04:34:13;28.58;;;16.10;;
74898;SDS011;63458;48.210;16.338;2023-02-15T04:36:40;26.52;;;14.90;;
74898;SDS011;63458;48.210;16.338;2023-02-15T04:39:06;28.83;;;15.27;;
74898;SDS011;63458;48.210;16.338;2023-02-15T04:41:32;28.95;;;15.30;;
74898;SDS011;63458;48.210;16.338;2023-02-15T04:43:59;26.42;;;15.45;;
74898;SDS011;63458;48.210;16.338;2023-02-15T04:46:26;27.25;;;15.63;;
74898;SDS011;63458;48.210;16.338;2023-02-15T04:48:52;31.67;;;15.27;;
74898;SDS011;63458;48.210;16.338;2023-02-15T04:51:18;25.90;;;15.27;;
74898;SDS011;63458;48.210;16.338;2023-02-15T04:53:44;28.63;;;15.40;;
74898;SDS011;63458;48.210;16.338;2023-02-15T04:56:10;30.15;;;17.08;;
74898;SDS011;63458;48.210;16.338;2023-02-15T04:58:36;29.98;;;15.98;;
74898;SDS011;63458;48.210;16.338;2023-02-15T05:01:05;30.45;;;16.15;;
74898;SDS011;63458;48.210;16.338;2023-02-15T05:03:31;28.40;;;14.57;;
74898;SDS011;63458;48.210;16.338;2023-02-15T05:05:57;30.13;;;16.00;;
74898;SDS011;63458;48.210;16.338;2023-02-15T05:08:23;30.75;;;15.25;;
74898;SDS011;63458;48.210;16.338;2023-02-15T05:10:49;27.63;;;15.63;;
74898;SDS011;63458;48.210;16.338;2023-02-15T05:13:16;31.20;;;15.93;;
74898;SDS011;63458;48.210;16.338;2023-02-15T05:15:46;27.73;;;15.43;;
74898;SDS011;63458;48.210;16.338;2023-02-15T05:18:12;29.08;;;16.65;;
74898;SDS011;63458;48.210;16.338;2023-02-15T05:20:38;29.02;;;16.05;;
74898;SDS011;63458;48.210;16.338;2023-02-15T05:23:04;30.85;;;17.00;;
74898;SDS011;63458;48.210;16.338;2023-02-15T05:25:30;27.90;;;14.45;;
74898;SDS011;63458;48.210;16.338;2023-02-15T05:28:14;30.67;;;15.98;;
74898;SDS011;63458;48.210;16.338;2023-02-15T05:30:50;26.73;;;16.15;;
74898;SDS011;63458;48.210;16.338;2023-02-15T05:33:16;28.40;;;17.05;;
74898;SDS011;63458;48.210;16.338;2023-02-15T05:35:43;32.00;;;16.63;;
74898;SDS011;63458;48.210;16.338;2023-02-15T05:38:09;30.80;;;16.20;;
74898;SDS011;63458;48.210;16.338;2023-02-15T05:40:35;31.55;;;16.83;;
74898;SDS011;63458;48.210;16.338;2023-02-15T05:43:01;29.45;;;15.70;;
74898;SDS011;63458;48.210;16.338;2023-02-15T05:45:27;30.80;;;16.52;;
74898;SDS011;63458;48.210;16.338;2023-02-15T05:47:53;30.50;;;16.63;;
74898;SDS011;63458;48.210;16.338;2023-02-15T05:50:19;31.45;;;17.15;;
74898;SDS011;63458;48.210;16.338;2023-02-15T05:52:46;27.17;;;14.98;;
74898;SDS011;63458;48.210;16.338;2023-02-15T05:55:12;31.73;;;16.17;;
74898;SDS011;63458;48.210;16.338;2023-02-15T05:57:38;32.45;;;16.38;;
74898;SDS011;63458;48.210;16.338;2023-02-15T06:00:04;31.35;;;16.27;;
74898;SDS011;63458;48.210;16.338;2023-02-15T06:02:34;31.77;;;17.65;;
74898;SDS011;63458;48.210;16.338;2023-02-15T06:05:00;30.30;;;16.60;;
74898;SDS011;63458;48.210;16.338;2023-02-15T06:07:26;31.75;;;16.35;;
74898;SDS011;63458;48.210;16.338;2023-02-15T06:09:52;29.10;;;15.63;;
74898;SDS011;63458;48.210;16.338;2023-02-15T06:12:18;33.30;;;17.92;;
74898;SDS011;63458;48.210;16.338;2023-02-15T06:14:44;33.60;;;17.23;;
74898;SDS011;63458;48.210;16.338;2023-02-15T06:17:10;35.38;;;19.02;;
74898;SDS011;63458;48.210;16.338;2023-02-15T06:19:36;32.28;;;17.13;;
74898;SDS011;63458;48.210;16.338;2023-02-15T06:22:02;35.05;;;18.48;;
74898;SDS011;63458;48.210;16.338;2023-02-15T06:24:28;31.63;;;16.25;;
74898;SDS011;63458;48.210;16.338;2023-02-15T06:26:54;33.05;;;16.85;;
74898;SDS011;63458;48.210;16.338;2023-02-15T06:29:20;33.13;;;17.70;;
74898;SDS011;63458;48.210;16.338;2023-02-15T06:31:46;30.75;;;17.13;;
74898;SDS011;63458;48.210;16.338;2023-02-15T06:34:12;31.25;;;16.83;;
74898;SDS011;63458;48.210;16.338;2023-02-15T06:36:38;30.92;;;16.58;;
74898;SDS011;63458;48.210;16.338;2023-02-15T06:39:04;32.05;;;18.35;;
74898;SDS011;63458;48.210;16.338;2023-02-15T06:41:31;30.45;;;16.02;;
74898;SDS011;63458;48.210;16.338;2023-02-15T06:43:57;30.52;;;15.90;;
74898;SDS011;63458;48.210;16.338;2023-02-15T06:46:23;32.45;;;17.67;;
74898;SDS011;63458;48.210;16.338;2023-02-15T06:48:49;28.40;;;14.82;;
74898;SDS011;63458;48.210;16.338;2023-02-15T06:51:15;29.80;;;13.95;;
74898;SDS011;63458;48.210;16.338;2023-02-15T06:53:41;27.02;;;14.50;;
74898;SDS011;63458;48.210;16.338;2023-02-15T06:56:08;31.95;;;14.73;;
74898;SDS011;63458;48.210;16.338;2023-02-15T06:58:40;30.52;;;15.40;;
74898;SDS011;63458;48.210;16.338;2023-02-15T07:01:07;26.95;;;14.77;;
74898;SDS011;63458;48.210;16.338;2023-02-15T07:03:33;24.90;;;14.05;;
74898;SDS011;63458;48.210;16.338;2023-02-15T07:06:01;29.23;;;15.30;;
74898;SDS011;63458;48.210;16.338;2023-02-15T07:10:54;26.83;;;13.48;;
74898;SDS011;63458;48.210;16.338;2023-02-15T07:13:40;25.05;;;13.70;;
74898;SDS011;63458;48.210;16.338;2023-02-15T07:16:07;28.27;;;15.88;;
74898;SDS011;63458;48.210;16.338;2023-02-15T07:18:33;28.88;;;14.75;;
74898;SDS011;63458;48.210;16.338;2023-02-15T07:20:59;28.17;;;14.77;;
74898;SDS011;63458;48.210;16.338;2023-02-15T07:23:25;27.45;;;14.82;;
74898;SDS011;63458;48.210;16.338;2023-02-15T07:25:58;28.65;;;14.73;;
74898;SDS011;63458;48.210;16.338;2023-02-15T07:28:24;27.75;;;14.45;;
74898;SDS011;63458;48.210;16.338;2023-02-15T07:30:50;26.98;;;14.38;;
74898;SDS011;63458;48.210;16.338;2023-02-15T07:33:17;28.63;;;13.80;;
74898;SDS011;63458;48.210;16.338;2023-02-15T07:35:56;30.17;;;14.55;;
74898;SDS011;63458;48.210;16.338;2023-02-15T07:38:23;29.05;;;13.55;;
74898;SDS011;63458;48.210;16.338;2023-02-15T07:40:49;26.85;;;13.52;;
74898;SDS011;63458;48.210;16.338;2023-02-15T07:43:16;30.83;;;15.82;;
74898;SDS011;63458;48.210;16.338;2023-02-15T07:45:42;28.80;;;14.82;;
74898;SDS011;63458;48.210;16.338;2023-02-15T07:48:08;29.38;;;15.52;;
74898;SDS011;63458;48.210;16.338;2023-02-15T07:50:34;28.40;;;14.45;;
74898;SDS011;63458;48.210;16.338;2023-02-15T07:53:01;30.10;;;15.95;;
74898;SDS011;63458;48.210;16.338;2023-02-15T07:55:27;31.35;;;15.50;;
74898;SDS011;63458;48.210;16.338;2023-02-15T07:57:54;30.95;;;15.20;;
74898;SDS011;63458;48.210;16.338;2023-02-15T08:00:20;30.15;;;14.48;;
74898;SDS011;63458;48.210;16.338;2023-02-15T08:02:54;29.80;;;14.38;;
74898;SDS011;63458;48.210;16.338;2023-02-15T08:05:39;29.40;;;14.80;;
74898;SDS011;63458;48.210;16.338;2023-02-15T08:08:05;28.90;;;14.63;;
74898;SDS011;63458;48.210;16.338;2023-02-15T08:10:32;27.15;;;14.82;;
74898;SDS011;63458;48.210;16.338;2023-02-15T08:13:30;27.48;;;13.95;;
74898;SDS011;63458;48.210;16.338;2023-02-15T08:15:56;27.52;;;14.45;;
74898;SDS011;63458;48.210;16.338;2023-02-15T08:18:22;29.00;;;14.77;;
74898;SDS011;63458;48.210;16.338;2023-02-15T08:20:49;29.38;;;14.60;;
74898;SDS011;63458;48.210;16.338;2023-02-15T08:23:15;30.20;;;15.48;;
74898;SDS011;63458;48.210;16.338;2023-02-15T08:25:41;27.42;;;13.50;;
74898;SDS011;63458;48.210;16.338;2023-02-15T08:28:07;29.08;;;14.02;;
74898;SDS011;63458;48.210;16.338;2023-02-15T08:30:33;28.05;;;14.70;;
74898;SDS011;63458;48.210;16.338;2023-02-15T08:32:59;28.20;;;14.48;;
74898;SDS011;63458;48.210;16.338;2023-02-15T08:35:25;26.08;;;13.35;;
74898;SDS011;63458;48.210;16.338;2023-02-15T08:37:51;27.92;;;14.65;;
74898;SDS011;63458;48.210;16.338;2023-02-15T08:40:17;31.48;;;16.23;;
74898;SDS011;63458;48.210;16.338;2023-02-15T08:42:43;28.33;;;15.40;;
74898;SDS011;63458;48.210;16.338;2023-02-15T08:45:09;30.92;;;14.07;;
74898;SDS011;63458;48.210;16.338;2023-02-15T08:47:35;28.08;;;14.38;;
74898;SDS011;63458;48.210;16.338;2023-02-15T08:50:01;27.02;;;14.55;;
74898;SDS011;63458;48.210;16.338;2023-02-15T08:52:29;27.50;;;14.23;;
74898;SDS011;63458;48.210;16.338;2023-02-15T08:54:55;29.27;;;15.32;;
74898;SDS011;63458;48.210;16.338;2023-02-15T08:57:21;30.30;;;14.35;;
74898;SDS011;63458;48.210;16.338;2023-02-15T08:59:47;28.80;;;14.70;;
74898;SDS011;63458;48.210;16.338;2023-02-15T09:02:15;29.00;;;15.52;;
74898;SDS011;63458;48.210;16.338;2023-02-15T09:04:41;28.17;;;15.05;;
74898;SDS011;63458;48.210;16.338;2023-02-15T09:07:07;30.15;;;15.30;;
74898;SDS011;63458;48.210;16.338;2023-02-15T09:09:33;26.90;;;13.88;;
74898;SDS011;63458;48.210;16.338;2023-02-15T09:11:59;28.02;;;15.32;;
74898;SDS011;63458;48.210;16.338;2023-02-15T09:14:26;28.85;;;15.07;;
74898;SDS011;63458;48.210;16.338;2023-02-15T09:16:52;30.63;;;15.43;;
74898;SDS011;63458;48.210;16.338;2023-02-15T09:19:19;27.23;;;13.70;;
74898;SDS011;63458;48.210;16.338;2023-02-15T09:21:45;28.33;;;14.73;;
74898;SDS011;63458;48.210;16.338;2023-02-15T09:24:12;27.40;;;14.55;;
74898;SDS011;63458;48.210;16.338;2023-02-15T09:26:39;28.73;;;14.98;;
74898;SDS011;63458;48.210;16.338;2023-02-15T09:29:05;29.52;;;14.65;;
74898;SDS011;63458;48.210;16.338;2023-02-15T09:31:32;27.58;;;14.82;;
74898;SDS011;63458;48.210;16.338;2023-02-15T09:33:59;28.83;;;15.00;;
74898;SDS011;63458;48.210;16.338;2023-02-15T09:36:27;28.17;;;15.98;;
74898;SDS011;63458;48.210;16.338;2023-02-15T09:38:57;26.33;;;15.32;;
74898;SDS011;63458;48.210;16.338;2023-02-15T09:46:55;30.40;;;15.50;;
74898;SDS011;63458;48.210;16.338;2023-02-15T09:52:10;30.95;;;14.95;;
74898;SDS011;63458;48.210;16.338;2023-02-15T09:57:30;34.30;;;18.13;;
74898;SDS011;63458;48.210;16.338;2023-02-15T10:00:10;30.70;;;15.07;;
74898;SDS011;63458;48.210;16.338;2023-02-15T10:02:46;31.42;;;14.75;;
74898;SDS011;63458;48.210;16.338;2023-02-15T10:10:32;28.48;;;14.60;;
74898;SDS011;63458;48.210;16.338;2023-02-15T10:20:49;28.52;;;14.25;;
74898;SDS011;63458;48.210;16.338;2023-02-15T10:28:41;30.35;;;15.10;;
74898;SDS011;63458;48.210;16.338;2023-02-15T10:31:14;29.30;;;16.13;;
74898;SDS011;63458;48.210;16.338;2023-02-15T10:33:46;29.60;;;16.38;;
74898;SDS011;63458;48.210;16.338;2023-02-15T10:39:32;29.30;;;15.50;;
74898;SDS011;63458;48.210;16.338;2023-02-15T10:52:07;47.58;;;24.58;;
74898;SDS011;63458;48.210;16.338;2023-02-15T10:57:04;27.50;;;15.20;;
74898;SDS011;63458;48.210;16.338;2023-02-15T11:05:02;27.85;;;15.38;;
74898;SDS011;63458;48.210;16.338;2023-02-15T11:07:38;27.90;;;14.95;;
74898;SDS011;63458;48.210;16.338;2023-02-15T11:12:50;29.77;;;15.25;;
74898;SDS011;63458;48.210;16.338;2023-02-15T11:15:21;28.35;;;14.85;;
74898;SDS011;63458;48.210;16.338;2023-02-15T11:18:53;29.58;;;15.50;;
74898;SDS011;63458;48.210;16.338;2023-02-15T11:21:07;28.85;;;15.27;;
74898;SDS011;63458;48.210;16.338;2023-02-15T11:23:35;42.67;;;22.27;;
74898;SDS011;63458;48.210;16.338;2023-02-15T11:26:05;31.15;;;15.90;;
74898;SDS011;63458;48.210;16.338;2023-02-15T11:28:39;29.27;;;14.75;;
74898;SDS011;63458;48.210;16.338;2023-02-15T11:31:17;29.35;;;14.82;;
74898;SDS011;63458;48.210;16.338;2023-02-15T11:33:45;26.15;;;15.38;;
74898;SDS011;63458;48.210;16.338;2023-02-15T11:36:32;28.90;;;16.98;;
74898;SDS011;63458;48.210;16.338;2023-02-15T11:39:01;32.70;;;16.77;;
74898;SDS011;63458;48.210;16.338;2023-02-15T11:41:29;28.92;;;15.63;;
74898;SDS011;63458;48.210;16.338;2023-02-15T11:43:58;31.02;;;16.23;;
74898;SDS011;63458;48.210;16.338;2023-02-15T11:46:26;29.10;;;16.73;;
74898;SDS011;63458;48.210;16.338;2023-02-15T11:48:53;26.83;;;14.73;;
74898;SDS011;63458;48.210;16.338;2023-02-15T11:51:20;29.17;;;17.05;;
74898;SDS011;63458;48.210;16.338;2023-02-15T11:53:47;28.75;;;16.77;;
74898;SDS011;63458;48.210;16.338;2023-02-15T11:56:18;26.90;;;14.90;;
74898;SDS011;63458;48.210;16.338;2023-02-15T11:58:45;28.88;;;14.75;;
74898;SDS011;63458;48.210;16.338;2023-02-15T12:03:49;32.20;;;16.77;;
74898;SDS011;63458;48.210;16.338;2023-02-15T12:06:37;30.25;;;15.48;;
74898;SDS011;63458;48.210;16.338;2023-02-15T12:11:48;31.92;;;16.75;;
74898;SDS011;63458;48.210;16.338;2023-02-15T12:14:14;26.98;;;14.93;;
74898;SDS011;63458;48.210;16.338;2023-02-15T12:19:36;29.58;;;15.35;;
74898;SDS011;63458;48.210;16.338;2023-02-15T12:22:00;33.53;;;16.48;;
74898;SDS011;63458;48.210;16.338;2023-02-15T12:24:28;44.58;;;23.85;;
74898;SDS011;63458;48.210;16.338;2023-02-15T12:29:25;29.80;;;16.35;;
74898;SDS011;63458;48.210;16.338;2023-02-15T12:31:52;31.40;;;15.68;;
74898;SDS011;63458;48.210;16.338;2023-02-15T12:34:22;27.38;;;14.82;;
74898;SDS011;63458;48.210;16.338;2023-02-15T12:36:50;45.83;;;24.23;;
74898;SDS011;63458;48.210;16.338;2023-02-15T12:39:26;48.63;;;28.30;;
74898;SDS011;63458;48.210;16.338;2023-02-15T12:44:22;46.90;;;26.05;;
74898;SDS011;63458;48.210;16.338;2023-02-15T12:47:04;42.00;;;22.08;;
74898;SDS011;63458;48.210;16.338;2023-02-15T12:49:33;31.92;;;17.60;;
74898;SDS011;63458;48.210;16.338;2023-02-15T12:54:48;30.38;;;16.85;;
74898;SDS011;63458;48.210;16.338;2023-02-15T12:57:47;29.58;;;16.33;;
74898;SDS011;63458;48.210;16.338;2023-02-15T13:02:52;28.15;;;16.20;;
74898;SDS011;63458;48.210;16.338;2023-02-15T13:05:26;28.55;;;15.77;;
74898;SDS011;63458;48.210;16.338;2023-02-15T13:07:55;26.58;;;16.80;;
74898;SDS011;63458;48.210;16.338;2023-02-15T13:10:22;32.05;;;16.10;;
74898;SDS011;63458;48.210;16.338;2023-02-15T13:12:49;27.90;;;16.63;;
74898;SDS011;63458;48.210;16.338;2023-02-15T13:15:30;29.52;;;16.98;;
74898;SDS011;63458;48.210;16.338;2023-02-15T13:17:57;30.70;;;16.25;;
74898;SDS011;63458;48.210;16.338;2023-02-15T13:20:24;31.17;;;17.25;;
74898;SDS011;63458;48.210;16.338;2023-02-15T13:22:54;31.52;;;17.50;;
74898;SDS011;63458;48.210;16.338;2023-02-15T13:25:22;29.98;;;16.00;;
74898;SDS011;63458;48.210;16.338;2023-02-15T13:27:54;31.65;;;18.50;;
74898;SDS011;63458;48.210;16.338;2023-02-15T13:30:23;32.15;;;16.40;;
74898;SDS011;63458;48.210;16.338;2023-02-15T13:32:52;30.77;;;17.92;;
74898;SDS011;63458;48.210;16.338;2023-02-15T13:35:19;30.10;;;17.33;;
74898;SDS011;63458;48.210;16.338;2023-02-15T13:40:34;31.38;;;17.58;;
74898;SDS011;63458;48.210;16.338;2023-02-15T13:43:06;30.98;;;17.38;;
74898;SDS011;63458;48.210;16.338;2023-02-15T14:11:01;26.00;;;15.70;;
74898;SDS011;63458;48.210;16.338;2023-02-15T14:32:02;28.92;;;16.10;;
74898;SDS011;63458;48.210;16.338;2023-02-15T14:36:58;28.38;;;14.45;;
74898;SDS011;63458;48.210;16.338;2023-02-15T14:44:56;32.35;;;18.10;;
74898;SDS011;63458;48.210;16.338;2023-02-15T14:47:37;28.48;;;15.10;;
74898;SDS011;63458;48.210;16.338;2023-02-15T14:55:43;30.30;;;15.35;;
74898;SDS011;63458;48.210;16.338;2023-02-15T14:58:12;28.92;;;15.50;;
74898;SDS011;63458;48.210;16.338;2023-02-15T15:00:39;29.98;;;16.38;;
74898;SDS011;63458;48.210;16.338;2023-02-15T15:03:19;40.58;;;24.70;;
74898;SDS011;63458;48.210;16.338;2023-02-15T15:05:47;30.85;;;17.98;;
74898;SDS011;63458;48.210;16.338;2023-02-15T15:08:26;29.30;;;17.23;;
74898;SDS011;63458;48.210;16.338;2023-02-15T15:10:54;29.75;;;16.30;;
74898;SDS011;63458;48.210;16.338;2023-02-15T15:15:56;28.48;;;15.55;;
74898;SDS011;63458;48.210;16.338;2023-02-15T15:21:07;29.48;;;15.95;;
74898;SDS011;63458;48.210;16.338;2023-02-15T15:23:38;29.42;;;16.02;;
74898;SDS011;63458;48.210;16.338;2023-02-15T15:36:50;32.22;;;17.35;;
74898;SDS011;63458;48.210;16.338;2023-02-15T15:43:08;31.25;;;17.25;;
74898;SDS011;63458;48.210;16.338;2023-02-15T15:50:38;31.15;;;16.38;;
74898;SDS011;63458;48.210;16.338;2023-02-15T15:53:06;36.95;;;18.38;;
74898;SDS011;63458;48.210;16.338;2023-02-15T15:55:42;30.02;;;17.70;;
74898;SDS011;63458;48.210;16.338;2023-02-15T15:58:09;34.97;;;18.90;;
74898;SDS011;63458;48.210;16.338;2023-02-15T16:00:44;32.42;;;18.52;;
74898;SDS011;63458;48.210;16.338;2023-02-15T16:03:16;35.10;;;19.70;;
74898;SDS011;63458;48.210;16.338;2023-02-15T16:05:45;35.30;;;18.83;;
74898;SDS011;63458;48.210;16.338;2023-02-15T16:08:13;35.53;;;19.33;;
74898;SDS011;63458;48.210;16.338;2023-02-15T16:10:40;32.38;;;18.05;;
74898;SDS011;63458;48.210;16.338;2023-02-15T16:13:06;32.22;;;18.15;;
74898;SDS011;63458;48.210;16.338;2023-02-15T16:15:46;32.97;;;18.95;;
74898;SDS011;63458;48.210;16.338;2023-02-15T16:18:17;34.10;;;19.08;;
74898;SDS011;63458;48.210;16.338;2023-02-15T16:20:57;34.38;;;19.38;;
74898;SDS011;63458;48.210;16.338;2023-02-15T16:25:54;35.08;;;18.58;;
74898;SDS011;63458;48.210;16.338;2023-02-15T16:28:22;35.53;;;18.77;;
74898;SDS011;63458;48.210;16.338;2023-02-15T16:30:55;33.88;;;18.73;;
74898;SDS011;63458;48.210;16.338;2023-02-15T16:33:36;32.45;;;18.55;;
74898;SDS011;63458;48.210;16.338;2023-02-15T16:36:03;34.42;;;18.95;;
74898;SDS011;63458;48.210;16.338;2023-02-15T16:41:20;35.10;;;18.52;;
74898;SDS011;63458;48.210;16.338;2023-02-15T16:43:48;31.38;;;16.13;;
74898;SDS011;63458;48.210;16.338;2023-02-15T16:46:24;31.60;;;17.20;;
74898;SDS011;63458;48.210;16.338;2023-02-15T16:48:51;35.25;;;18.70;;
74898;SDS011;63458;48.210;16.338;2023-02-15T16:51:20;34.67;;;18.02;;
74898;SDS011;63458;48.210;16.338;2023-02-15T16:53:47;33.78;;;18.00;;
74898;SDS011;63458;48.210;16.338;2023-02-15T16:56:14;37.03;;;19.42;;
74898;SDS011;63458;48.210;16.338;2023-02-15T16:58:44;39.15;;;20.23;;
74898;SDS011;63458;48.210;16.338;2023-02-15T17:01:11;37.35;;;19.73;;
74898;SDS011;63458;48.210;16.338;2023-02-15T17:03:39;37.28;;;20.15;;
74898;SDS011;63458;48.210;16.338;2023-02-15T17:06:16;36.90;;;20.10;;
74898;SDS011;63458;48.210;16.338;2023-02-15T17:08:44;35.88;;;21.40;;
74898;SDS011;63458;48.210;16.338;2023-02-15T17:11:12;36.53;;;19.98;;
74898;SDS011;63458;48.210;16.338;2023-02-15T17:13:39;32.90;;;18.42;;
74898;SDS011;63458;48.210;16.338;2023-02-15T17:16:28;39.05;;;20.45;;
74898;SDS011;63458;48.210;16.338;2023-02-15T17:18:55;38.25;;;20.65;;
74898;SDS011;63458;48.210;16.338;2023-02-15T17:21:33;38.78;;;20.02;;
74898;SDS011;63458;48.210;16.338;2023-02-15T17:24:02;38.03;;;20.73;;
74898;SDS011;63458;48.210;16.338;2023-02-15T17:26:33;37.08;;;19.70;;
74898;SDS011;63458;48.210;16.338;2023-02-15T17:31:48;32.70;;;18.83;;
74898;SDS011;63458;48.210;16.338;2023-02-15T17:37:02;36.65;;;20.08;;
74898;SDS011;63458;48.210;16.338;2023-02-15T17:39:28;38.72;;;20.88;;
74898;SDS011;63458;48.210;16.338;2023-02-15T17:41:54;38.33;;;20.40;;
74898;SDS011;63458;48.210;16.338;2023-02-15T17:44:21;33.30;;;19.25;;
74898;SDS011;63458;48.210;16.338;2023-02-15T17:46:47;37.97;;;19.52;;